KMRY/MRY METAR and TAF weather

Enter ICAO airport designator
Station Type Date Time Source
KMRY METAR 2020/07/10 21:54 UTC NOAA

KMRY 102154Z 32009KT 10SM CLR 18/12 A3005 RMK AO2 SLP187 T01780117


Station Type Date Time Source
KMRY Decoded METAR 2020/07/10 21:54 UTC NOAA

MONTEREY PENINSULA AIRPORT, CA, United States (KMRY) 36-35N 121-51W 66M
Jul 10, 2020 - 05:54 PM EDT / 2020.07.10 2154 UTC
Wind: from the NW (320 degrees) at 10 MPH (9 KT):0
Visibility: 10 mile(s):0
Sky conditions: clear
Temperature: 64.0 F (17.8 C)
Dew Point: 53.1 F (11.7 C)
Relative Humidity: 67%
Pressure (altimeter): 30.05 in. Hg (1017 hPa)
ob: KMRY 102154Z 32009KT 10SM CLR 18/12 A3005 RMK AO2 SLP187 T01780117
cycle: 22

Station Type Date Time Source
KMRY TAF 2020/07/10 18:46 UTC NOAA

TAF
AMD KMRY 101744Z 1018/1118 30007KT P6SM SCT005
FM110200 23005KT P6SM SCT004 OVC007
FM110600 VRB02KT 2SM BR OVC002
FM111700 30005KT 6SM BR FEW004 SCT008

Example: see airport list